MiSS Allie — WDH2572 — position and weather

sailwx.info

Track history (hours):
 
Tides and Currents Weather Stations Pressure Air Temp Water Temp Dewpoint Dewpoint Depression Visibility Wind Speed Wind Dir Waves Ship Positions

MiSS Allie

Owner: UNITED MARINE OFFSHORE, LLC, MORGAN CITY, LA. More information available from US FCC via Universal Licensing System and Coast Guard Vessel Documentation Center.

Last reported at 2017-Dec-23 20:57 UTC. Time now 2018-May-25 18:54 UTC.
Position N 29°50' W 091°58'.
Warning: this ship's position is months out of date.

Length 30 m; draft 2 m.

Type: Passenger vessel. MMSI: 367598990.

Date/timePositionNaut miles runAvg speedWind from/ knotsBaromVisibWave heightAir tempDewpointWater temp
2017-Dec-23 20:57N 29°50' W 091°58'3 7.9
2017-Dec-23 20:30N 29°49' W 092°01'4 7.6
2017-Dec-23 20:00N 29°48' W 092°05'4 7.5
2017-Dec-23 19:30N 29°47' W 092°10'4 7.9
2017-Dec-23 19:00N 29°45' W 092°13'7 0.2
2017-Dec-22 11:40N 29°38' W 092°16'0 0.2
2017-Dec-22 11:30N 29°38' W 092°16'1 1.7
2017-Dec-22 10:59N 29°39' W 092°16'0 0.0
2017-Dec-22 10:25N 29°39' W 092°16'3 6.7
2017-Dec-22 10:00N 29°41' W 092°15'4 7.8
2017-Dec-22 09:30N 29°45' W 092°13'4 8.0
2017-Dec-22 09:00N 29°47' W 092°09'1 1.2
2017-Dec-22 08:30N 29°48' W 092°09'0 0.0
2017-Dec-22 08:00N 29°48' W 092°09'0 0.0
2017-Dec-22 07:30N 29°48' W 092°09'0 0.0
2017-Dec-22 07:00N 29°48' W 092°09'0 0.0
2017-Dec-22 06:30N 29°48' W 092°09'0 0.0
2017-Dec-22 05:10N 29°48' W 092°09'0 0.0
2017-Dec-22 05:00N 29°48' W 092°09'0 0.0
2017-Dec-22 04:30N 29°48' W 092°09'0 0.0
2017-Dec-22 04:01N 29°48' W 092°09'0 0.0
2017-Dec-22 03:30N 29°48' W 092°09'0 0.0
2017-Dec-22 03:00N 29°48' W 092°09'0 0.0
2017-Dec-22 02:30N 29°48' W 092°09'0 0.0
2017-Dec-22 02:00N 29°48' W 092°09'1 1.0
2017-Dec-22 01:30N 29°47' W 092°09'3 6.9
2017-Dec-22 01:00N 29°45' W 092°12'26 1.9
2017-Dec-21 11:49N 29°20' W 092°10'0 0.0
2017-Dec-21 11:22N 29°20' W 092°10'0 0.0
2017-Dec-21 11:00N 29°20' W 092°10'0 0.0
2017-Dec-21 10:21N 29°20' W 092°10'0 0.0
2017-Dec-21 09:53N 29°20' W 092°10'0 0.0
2017-Dec-21 09:19N 29°20' W 092°10'0 0.0
2017-Dec-21 08:21N 29°20' W 092°10'0 0.0
2017-Dec-21 07:54N 29°20' W 092°10'0 0.0
2017-Dec-21 07:30N 29°20' W 092°10'0 0.0
2017-Dec-21 07:00N 29°20' W 092°10'0 0.0
2017-Dec-21 06:01N 29°20' W 092°10'0 0.0
2017-Dec-21 05:59N 29°20' W 092°10'0 0.0
2017-Dec-21 05:20N 29°20' W 092°10'0 0.0
2017-Dec-21 04:55N 29°20' W 092°10'0 0.0
2017-Dec-21 04:30N 29°20' W 092°10'0 0.0
2017-Dec-21 03:59N 29°20' W 092°10'0 0.0
2017-Dec-21 03:30N 29°20' W 092°10'0 0.0
2017-Dec-21 03:00N 29°20' W 092°10'0 0.0
2017-Dec-21 02:27N 29°20' W 092°10'0 0.0
2017-Dec-21 02:01N 29°20' W 092°10'0 0.0
2017-Dec-21 01:30N 29°20' W 092°10'0 0.0
2017-Dec-21 01:00N 29°20' W 092°10'0 0.0
2017-Dec-21 00:30N 29°20' W 092°10'0 0.0
2017-Dec-21 00:00N 29°20' W 092°10'0 0.0
2017-Dec-20 23:31N 29°20' W 092°10'0 0.0
2017-Dec-20 23:00N 29°20' W 092°10'68 1.5
2017-Dec-19 02:41N 29°48' W 093°21'1 2.3
2017-Dec-19 02:04N 29°49' W 093°20'0 0.0
2017-Dec-19 01:59N 29°49' W 093°20'  
2017-Dec-16 09:57N 29°46' W 093°21'0 0.0
2017-Dec-16 09:30N 29°46' W 093°21'0 0.0
2017-Dec-16 09:00N 29°46' W 093°21'0 0.0
2017-Dec-16 08:30N 29°46' W 093°21'0 0.0
2017-Dec-16 08:00N 29°46' W 093°21'0 0.0
2017-Dec-16 07:28N 29°46' W 093°21'0 0.0
2017-Dec-16 06:59N 29°46' W 093°21'0 0.0
2017-Dec-16 06:30N 29°46' W 093°21'0 0.0
2017-Dec-16 06:00N 29°46' W 093°21'0 0.0
2017-Dec-16 05:30N 29°46' W 093°21'0 0.0
2017-Dec-16 05:00N 29°46' W 093°21'0 0.0
2017-Dec-16 04:30N 29°46' W 093°21'0 0.0
2017-Dec-16 03:59N 29°46' W 093°21'0 0.0
2017-Dec-16 03:30N 29°46' W 093°21'0 0.0
2017-Dec-16 02:59N 29°46' W 093°21'2 0.2
2017-Dec-15 16:06N 29°48' W 093°21'1 4.3
2017-Dec-15 15:51N 29°49' W 093°20'2 0.2
2017-Dec-15 05:01N 29°48' W 093°19'  
Track history (hours):
 
Tides and Currents Weather Stations Pressure Air Temp Water Temp Dewpoint Dewpoint Depression Visibility Wind Speed Wind Dir Waves Ship Positions

MiSS Allie

Owner: UNITED MARINE OFFSHORE, LLC, MORGAN CITY, LA. More information available from US FCC via Universal Licensing System and Coast Guard Vessel Documentation Center.

Last reported at 2017-Dec-23 20:57 UTC. Time now 2018-May-25 18:54 UTC.
Position N 29°50' W 091°58'.
Warning: this ship's position is months out of date.

Length 30 m; draft 2 m.

Type: Passenger vessel. MMSI: 367598990.

Date/timePositionNaut miles runAvg speedWind from/ knotsBaromVisibWave heightAir tempDewpointWater temp
2017-Dec-23 20:57N 29°50' W 091°58'3 7.9
2017-Dec-23 20:30N 29°49' W 092°01'4 7.6
2017-Dec-23 20:00N 29°48' W 092°05'4 7.5
2017-Dec-23 19:30N 29°47' W 092°10'4 7.9
2017-Dec-23 19:00N 29°45' W 092°13'7 0.2
2017-Dec-22 11:40N 29°38' W 092°16'0 0.2
2017-Dec-22 11:30N 29°38' W 092°16'1 1.7
2017-Dec-22 10:59N 29°39' W 092°16'0 0.0
2017-Dec-22 10:25N 29°39' W 092°16'3 6.7
2017-Dec-22 10:00N 29°41' W 092°15'4 7.8
2017-Dec-22 09:30N 29°45' W 092°13'4 8.0
2017-Dec-22 09:00N 29°47' W 092°09'1 1.2
2017-Dec-22 08:30N 29°48' W 092°09'0 0.0
2017-Dec-22 08:00N 29°48' W 092°09'0 0.0
2017-Dec-22 07:30N 29°48' W 092°09'0 0.0
2017-Dec-22 07:00N 29°48' W 092°09'0 0.0
2017-Dec-22 06:30N 29°48' W 092°09'0 0.0
2017-Dec-22 05:10N 29°48' W 092°09'0 0.0
2017-Dec-22 05:00N 29°48' W 092°09'0 0.0
2017-Dec-22 04:30N 29°48' W 092°09'0 0.0
2017-Dec-22 04:01N 29°48' W 092°09'0 0.0
2017-Dec-22 03:30N 29°48' W 092°09'0 0.0
2017-Dec-22 03:00N 29°48' W 092°09'0 0.0
2017-Dec-22 02:30N 29°48' W 092°09'0 0.0
2017-Dec-22 02:00N 29°48' W 092°09'1 1.0
2017-Dec-22 01:30N 29°47' W 092°09'3 6.9
2017-Dec-22 01:00N 29°45' W 092°12'26 1.9
2017-Dec-21 11:49N 29°20' W 092°10'0 0.0
2017-Dec-21 11:22N 29°20' W 092°10'0 0.0
2017-Dec-21 11:00N 29°20' W 092°10'0 0.0
2017-Dec-21 10:21N 29°20' W 092°10'0 0.0
2017-Dec-21 09:53N 29°20' W 092°10'0 0.0
2017-Dec-21 09:19N 29°20' W 092°10'0 0.0
2017-Dec-21 08:21N 29°20' W 092°10'0 0.0
2017-Dec-21 07:54N 29°20' W 092°10'0 0.0
2017-Dec-21 07:30N 29°20' W 092°10'0 0.0
2017-Dec-21 07:00N 29°20' W 092°10'0 0.0
2017-Dec-21 06:01N 29°20' W 092°10'0 0.0
2017-Dec-21 05:59N 29°20' W 092°10'0 0.0
2017-Dec-21 05:20N 29°20' W 092°10'0 0.0
2017-Dec-21 04:55N 29°20' W 092°10'0 0.0
2017-Dec-21 04:30N 29°20' W 092°10'0 0.0
2017-Dec-21 03:59N 29°20' W 092°10'0 0.0
2017-Dec-21 03:30N 29°20' W 092°10'0 0.0
2017-Dec-21 03:00N 29°20' W 092°10'0 0.0
2017-Dec-21 02:27N 29°20' W 092°10'0 0.0
2017-Dec-21 02:01N 29°20' W 092°10'0 0.0
2017-Dec-21 01:30N 29°20' W 092°10'0 0.0
2017-Dec-21 01:00N 29°20' W 092°10'0 0.0
2017-Dec-21 00:30N 29°20' W 092°10'0 0.0
2017-Dec-21 00:00N 29°20' W 092°10'0 0.0
2017-Dec-20 23:31N 29°20' W 092°10'0 0.0
2017-Dec-20 23:00N 29°20' W 092°10'68 1.5
2017-Dec-19 02:41N 29°48' W 093°21'1 2.3
2017-Dec-19 02:04N 29°49' W 093°20'0 0.0
2017-Dec-19 01:59N 29°49' W 093°20'  
2017-Dec-16 09:57N 29°46' W 093°21'0 0.0
2017-Dec-16 09:30N 29°46' W 093°21'0 0.0
2017-Dec-16 09:00N 29°46' W 093°21'0 0.0
2017-Dec-16 08:30N 29°46' W 093°21'0 0.0
2017-Dec-16 08:00N 29°46' W 093°21'0 0.0
2017-Dec-16 07:28N 29°46' W 093°21'0 0.0
2017-Dec-16 06:59N 29°46' W 093°21'0 0.0
2017-Dec-16 06:30N 29°46' W 093°21'0 0.0
2017-Dec-16 06:00N 29°46' W 093°21'0 0.0
2017-Dec-16 05:30N 29°46' W 093°21'0 0.0
2017-Dec-16 05:00N 29°46' W 093°21'0 0.0
2017-Dec-16 04:30N 29°46' W 093°21'0 0.0
2017-Dec-16 03:59N 29°46' W 093°21'0 0.0
2017-Dec-16 03:30N 29°46' W 093°21'0 0.0
2017-Dec-16 02:59N 29°46' W 093°21'2 0.2
2017-Dec-15 16:06N 29°48' W 093°21'1 4.3
2017-Dec-15 15:51N 29°49' W 093°20'2 0.2
2017-Dec-15 05:01N 29°48' W 093°19'  

Dump ship's entire track history